Time;durP1;ratioP1;P1;durP2;ratioP2;P2;SDS_P1;SDS_P2;PMS_P1;PMS_P2;Temp;Humidity;BMP_temperature;BMP_pressure;BME280_temperature;BME280_humidity;BME280_pressure;Samples;Min_cycle;Max_cycle;Signal;HPM_P1;HPM_P2
2021/12/06 00:01:31;;;;;;;58.90;33.17;;;;;;;;;;4360414;32;19993;-72
2021/12/06 00:03:51;;;;;;;73.05;35.08;;;;;;;;;;4349950;33;20066;-72
2021/12/06 00:06:18;;;;;;;78.20;37.05;;;;;;;;;;4361447;32;20019;-72
2021/12/06 00:08:53;;;;;;;66.47;34.33;;;;;;;;;;4347062;33;20058;-72
2021/12/06 00:11:27;;;;;;;66.57;36.30;;;;;;;;;;4347282;33;20406;-72
2021/12/06 00:13:52;;;;;;;67.75;35.88;;;;;;;;;;4361058;32;20031;-72
2021/12/06 00:16:20;;;;;;;;;;;;;;;;;;4360239;32;20443;-72
2021/12/06 00:18:46;;;;;;;65.72;34.67;;;;;;;;;;4360554;32;19938;-72
2021/12/06 00:21:11;;;;;;;;;;;;;;;;;;4360362;32;20035;-73
2021/12/06 00:23:37;;;;;;;65.58;34.26;;;;;;;;;;4360181;32;19935;-72
2021/12/06 00:26:02;;;;;;;;;;;;;;;;;;4361154;32;20039;-72
2021/12/06 00:28:35;;;;;;;71.05;37.97;;;;;;;;;;4360542;32;19943;-72
2021/12/06 00:31:33;;;;;;;69.30;36.78;;;;;;;;;;4360861;33;20396;-72
2021/12/06 00:34:02;;;;;;;65.43;35.50;;;;;;;;;;4357609;32;20023;-72
2021/12/06 00:36:30;;;;;;;67.12;37.33;;;;;;;;;;4365218;32;20094;-72
2021/12/06 00:38:56;;;;;;;68.50;36.75;;;;;;;;;;4365166;32;20050;-72
2021/12/06 00:41:22;;;;;;;63.42;36.13;;;;;;;;;;4365307;32;20440;-72
2021/12/06 00:43:57;;;;;;;;;;;;;;;;;;;;;
2021/12/06 00:46:23;;;;;;;57.75;31.83;;;;;;;;;;4363537;32;19965;-73
2021/12/06 00:48:48;;;;;;;;;;;;;;;;;;4365505;32;20019;-72
2021/12/06 00:51:15;;;;;;;67.80;34.92;;;;;;;;;;4364918;32;19949;-72
2021/12/06 00:53:41;;;;;;;57.72;33.15;;;;;;;;;;4365285;32;20104;-72
2021/12/06 00:56:15;;;;;;;;;;;;;;;;;;4365792;32;20027;-72
2021/12/06 00:58:40;;;;;;;64.75;33.60;;;;;;;;;;4365724;32;20008;-72
2021/12/06 01:01:06;;;;;;;;;;;;;;;;;;4364255;32;20091;-72
2021/12/06 01:03:32;;;;;;;62.88;32.33;;;;;;;;;;4365686;32;20000;-72
2021/12/06 01:06:01;;;;;;;69.35;35.67;;;;;;;;;;4365010;32;20106;-72
2021/12/06 01:08:26;;;;;;;62.88;34.85;;;;;;;;;;4365177;32;20026;-72
2021/12/06 01:10:52;;;;;;;;;;;;;;;;;;4365142;32;20095;-72
2021/12/06 01:13:26;;;;;;;60.55;31.75;;;;;;;;;;4365352;32;19985;-72
2021/12/06 01:15:52;;;;;;;59.55;32.80;;;;;;;;;;4365331;32;20441;-72
2021/12/06 01:18:17;;;;;;;;;;;;;;;;;;4365316;32;20035;-72
2021/12/06 01:23:51;;;;;;;;;;;;;;;;;;;;;
2021/12/06 01:29:25;;;;;;;69.97;34.47;;;;;;;;;;4365254;32;20081;-72
2021/12/06 01:31:59;;;;;;;61.50;33.50;;;;;;;;;;4364689;32;20416;-72
2021/12/06 01:43:09;;;;;;;65.15;33.53;;;;;;;;;;4347650;33;20456;-72
2021/12/06 01:45:35;;;;;;;;;;;;;;;;;;4362941;32;20058;-72
2021/12/06 01:48:00;;;;;;;77.97;36.60;;;;;;;;;;4362611;32;19978;-72
2021/12/06 01:50:25;;;;;;;;;;;;;;;;;;4362841;32;20090;-72
2021/12/06 01:53:14;;;;;;;73.30;37.25;;;;;;;;;;4362256;32;20023;-72
2021/12/06 01:55:39;;;;;;;60.97;36.05;;;;;;;;;;4354660;33;20053;-72
2021/12/06 01:58:04;;;;;;;;;;;;;;;;;;4363016;32;20031;-72
2021/12/06 02:00:32;;;;;;;73.22;37.15;;;;;;;;;;4362428;32;19980;-72
2021/12/06 02:02:57;;;;;;;72.32;38.25;;;;;;;;;;4362467;32;20042;-72
2021/12/06 02:05:23;;;;;;;;;;;;;;;;;;4362795;32;20069;-72
2021/12/06 02:07:48;;;;;;;66.47;36.90;;;;;;;;;;4362293;32;19934;-72
2021/12/06 02:10:13;;;;;;;;;;;;;;;;;;4349369;33;20011;-72
2021/12/06 02:15:46;;;;;;;66.68;35.72;;;;;;;;;;4362629;32;20405;-72
2021/12/06 02:19:03;;;;;;;79.55;37.97;;;;;;;;;;4363200;32;20414;-72
2021/12/06 02:21:08;;;;;;;77.80;38.28;;;;;;;;;;4351420;33;20085;-72
2021/12/06 02:23:34;;;;;;;69.60;37.03;;;;;;;;;;4362455;32;20019;-72
2021/12/06 02:25:59;;;;;;;;;;;;;;;;;;4362836;32;20299;-72
2021/12/06 02:28:27;;;;;;;82.53;37.75;;;;;;;;;;4361870;33;19943;-72
2021/12/06 02:30:52;;;;;;;82.88;39.72;;;;;;;;;;4361652;32;20023;-72
2021/12/06 02:33:27;;;;;;;;;;;;;;;;;;;;;
2021/12/06 02:36:09;;;;;;;78.62;40.75;;;;;;;;;;4329995;33;19947;-72
2021/12/06 02:38:35;;;;;;;76.68;38.97;;;;;;;;;;4330306;33;20107;-72
2021/12/06 02:41:00;;;;;;;;;;;;;;;;;;4361909;32;20050;-72
2021/12/06 02:43:25;;;;;;;76.03;38.85;;;;;;;;;;4361464;32;19943;-72
2021/12/06 02:45:53;;;;;;;;;;;;;;;;;;4362470;32;20351;-72
2021/12/06 02:48:18;;;;;;;94.28;40.95;;;;;;;;;;4361310;33;20309;-72
2021/12/06 02:50:43;;;;;;;;;;;;;;;;;;4360861;33;20039;-72
2021/12/06 02:53:09;;;;;;;80.62;39.72;;;;;;;;;;4374606;32;19957;-72
2021/12/06 02:55:36;;;;;;;;;;;;;;;;;;4376219;32;20147;-72
2021/12/06 02:58:16;;;;;;;78.72;38.75;;;;;;;;;;4375890;32;19956;-72
2021/12/06 03:00:44;;;;;;;88.00;40.97;;;;;;;;;;4376335;32;20489;-72
2021/12/06 03:03:09;;;;;;;85.85;42.67;;;;;;;;;;4376696;32;20027;-72
2021/12/06 03:08:38;;;;;;;74.72;38.30;;;;;;;;;;4359499;32;19966;-73
2021/12/06 03:11:31;;;;;;;91.40;42.25;;;;;;;;;;4375327;32;20026;-72
2021/12/06 03:14:06;;;;;;;84.30;41.67;;;;;;;;;;4362839;32;20049;-73
2021/12/06 03:16:31;;;;;;;91.07;43.40;;;;;;;;;;4376462;32;20019;-73
2021/12/06 03:21:44;;;;;;;87.20;42.15;;;;;;;;;;4376378;32;20396;-72
2021/12/06 03:24:10;;;;;;;85.78;41.17;;;;;;;;;;4376341;32;20046;-72
2021/12/06 03:26:35;;;;;;;;;;;;;;;;;;4376510;32;20423;-72
2021/12/06 03:29:01;;;;;;;85.18;42.97;;;;;;;;;;4377085;32;19995;-72
2021/12/06 03:31:26;;;;;;;;;;;;;;;;;;4376680;32;20041;-72
2021/12/06 03:33:52;;;;;;;89.55;40.88;;;;;;;;;;4376267;32;19964;-72
2021/12/06 03:39:49;;;;;;;98.40;41.30;;;;;;;;;;4350106;32;20035;-73
2021/12/06 03:42:19;;;;;;;79.28;38.42;;;;;;;;;;4376723;32;20027;-72
2021/12/06 03:44:44;;;;;;;97.80;42.62;;;;;;;;;;4376075;32;20034;-72
2021/12/06 03:47:09;;;;;;;;;;;;;;;;;;4376416;32;20453;-72
2021/12/06 03:49:44;;;;;;;94.95;43.45;;;;;;;;;;4375373;32;19985;-72
2021/12/06 03:52:22;;;;;;;92.60;43.10;;;;;;;;;;4376361;32;20153;-72
2021/12/06 03:55:14;;;;;;;88.70;42.30;;;;;;;;;;4361339;32;20022;-72
2021/12/06 03:57:39;;;;;;;93.85;45.10;;;;;;;;;;4372264;32;20096;-73
2021/12/06 04:00:04;;;;;;;;;;;;;;;;;;4376213;32;20339;-73
2021/12/06 04:02:32;;;;;;;96.06;44.36;;;;;;;;;;4375389;32;20020;-72
2021/12/06 04:04:58;;;;;;;85.18;39.42;;;;;;;;;;4375647;32;20019;-72
2021/12/06 04:07:23;;;;;;;;;;;;;;;;;;4376803;32;20072;-72
2021/12/06 04:09:49;;;;;;;111.35;47.47;;;;;;;;;;4374977;32;19976;-72
2021/12/06 04:12:15;;;;;;;;;;;;;;;;;;4376439;32;20393;-72
2021/12/06 04:14:40;;;;;;;98.70;40.65;;;;;;;;;;4375163;32;19940;-72
2021/12/06 04:17:06;;;;;;;;;;;;;;;;;;4376068;32;20018;-72
2021/12/06 04:19:32;;;;;;;105.68;46.53;;;;;;;;;;4375114;32;19938;-72
2021/12/06 04:21:58;;;;;;;110.80;48.60;;;;;;;;;;4375158;32;20026;-72
2021/12/06 04:24:23;;;;;;;;;;;;;;;;;;4376034;32;20110;-72
2021/12/06 04:26:49;;;;;;;123.00;46.92;;;;;;;;;;4375045;32;19934;-73
2021/12/06 04:29:14;;;;;;;;;;;;;;;;;;4375415;32;20106;-72
2021/12/06 04:31:41;;;;;;;117.02;46.76;;;;;;;;;;4375554;32;19993;-72
2021/12/06 04:34:07;;;;;;;96.25;42.80;;;;;;;;;;4375394;32;20436;-72
2021/12/06 04:36:32;;;;;;;;;;;;;;;;;;4375506;32;20023;-73
2021/12/06 04:38:57;;;;;;;116.18;46.70;;;;;;;;;;4375909;32;19938;-72
2021/12/06 04:41:22;;;;;;;;;;;;;;;;;;4375565;32;20124;-72
2021/12/06 04:43:48;;;;;;;131.52;52.33;;;;;;;;;;4375312;32;19953;-72
2021/12/06 04:46:13;;;;;;;;;;;;;;;;;;4362065;32;20048;-72
2021/12/06 04:48:38;;;;;;;117.72;50.30;;;;;;;;;;4374886;32;20260;-72
2021/12/06 04:51:04;;;;;;;;;;;;;;;;;;4375902;32;20046;-73
2021/12/06 04:53:36;;;;;;;120.97;50.70;;;;;;;;;;4375155;32;19934;-72
2021/12/06 04:56:02;;;;;;;136.25;50.17;;;;;;;;;;4374705;32;20105;-73
2021/12/06 04:58:27;;;;;;;;;;;;;;;;;;4361645;32;20035;-72
2021/12/06 05:00:55;;;;;;;128.90;52.15;;;;;;;;;;4375187;32;20256;-72
2021/12/06 05:03:20;;;;;;;116.32;51.70;;;;;;;;;;4375093;32;20197;-72
2021/12/06 05:05:46;;;;;;;;;;;;;;;;;;4375288;32;20034;-72
2021/12/06 05:08:15;;;;;;;130.68;50.67;;;;;;;;;;4375258;32;19980;-72
2021/12/06 05:10:41;;;;;;;121.93;51.10;;;;;;;;;;4376113;32;20035;-72
2021/12/06 05:13:06;;;;;;;;;;;;;;;;;;4376286;32;20322;-72
2021/12/06 05:15:31;;;;;;;117.70;52.92;;;;;;;;;;4374873;32;19944;-73
2021/12/06 05:17:56;;;;;;;;;;;;;;;;;;4376237;32;20035;-72
2021/12/06 05:20:22;;;;;;;110.85;49.72;;;;;;;;;;4376725;32;19934;-72
2021/12/06 05:22:47;;;;;;;;;;;;;;;;;;4378214;32;20188;-73
2021/12/06 05:25:14;;;;;;;109.18;46.97;;;;;;;;;;4377343;32;19938;-73
2021/12/06 05:27:42;;;;;;;113.10;49.17;;;;;;;;;;4377810;32;20376;-73
2021/12/06 05:30:10;;;;;;;116.80;49.65;;;;;;;;;;4378061;32;20077;-73
2021/12/06 05:32:36;;;;;;;111.35;51.05;;;;;;;;;;4377823;32;20435;-72
2021/12/06 05:35:07;;;;;;;113.57;51.60;;;;;;;;;;4377351;32;20039;-71
2021/12/06 05:37:36;;;;;;;107.95;49.25;;;;;;;;;;4378055;32;20019;-73
2021/12/06 05:40:03;;;;;;;113.88;52.33;;;;;;;;;;4377267;32;20120;-73
2021/12/06 05:42:28;;;;;;;119.43;49.92;;;;;;;;;;4377395;32;20030;-73
2021/12/06 05:44:53;;;;;;;;;;;;;;;;;;4377938;32;20049;-71
2021/12/06 05:47:18;;;;;;;112.12;48.05;;;;;;;;;;4377515;32;19985;-72
2021/12/06 05:49:44;;;;;;;;;;;;;;;;;;4378165;32;20112;-71
2021/12/06 05:52:09;;;;;;;117.90;52.50;;;;;;;;;;4377651;32;19995;-71
2021/12/06 05:54:34;;;;;;;;;;;;;;;;;;4363847;32;20019;-72
2021/12/06 05:57:00;;;;;;;112.40;49.50;;;;;;;;;;4377038;32;19948;-72
2021/12/06 05:59:25;;;;;;;;;;;;;;;;;;4377846;32;20023;-72
2021/12/06 06:01:54;;;;;;;116.03;50.35;;;;;;;;;;4377973;32;19938;-72
2021/12/06 06:04:27;;;;;;;143.05;57.42;;;;;;;;;;4377751;32;20023;-72
2021/12/06 06:06:52;;;;;;;134.80;55.85;;;;;;;;;;4377149;32;20031;-72
2021/12/06 06:09:17;;;;;;;;;;;;;;;;;;4377806;32;20019;-72
2021/12/06 06:11:43;;;;;;;103.35;47.50;;;;;;;;;;4377008;32;19946;-72
2021/12/06 06:14:08;;;;;;;;;;;;;;;;;;4376971;32;20181;-71
2021/12/06 06:16:36;;;;;;;114.98;51.56;;;;;;;;;;4376903;32;19948;-72
2021/12/06 06:19:03;;;;;;;122.85;52.20;;;;;;;;;;4376951;32;20031;-72
2021/12/06 06:21:28;;;;;;;127.38;53.80;;;;;;;;;;4377064;32;20046;-72
2021/12/06 06:23:54;;;;;;;;;;;;;;;;;;4376753;32;20065;-72
2021/12/06 06:29:14;;;;;;;106.70;48.87;;;;;;;;;;4330360;33;20043;-73
2021/12/06 06:31:39;;;;;;;104.45;49.63;;;;;;;;;;4370004;32;20050;-72
2021/12/06 06:34:05;;;;;;;;;;;;;;;;;;4376492;32;20023;-73
2021/12/06 06:36:32;;;;;;;117.26;49.42;;;;;;;;;;4376295;32;19950;-73
2021/12/06 06:38:57;;;;;;;97.50;47.20;;;;;;;;;;4376906;32;20047;-72
2021/12/06 06:41:24;;;;;;;;;;;;;;;;;;4376511;32;20388;-73
2021/12/06 06:43:55;;;;;;;111.57;50.97;;;;;;;;;;4376658;32;20355;-72
2021/12/06 06:46:20;;;;;;;109.12;51.78;;;;;;;;;;4376913;32;20150;-72
2021/12/06 06:48:46;;;;;;;;;;;;;;;;;;4377189;32;20104;-73
2021/12/06 06:51:27;;;;;;;122.45;51.50;;;;;;;;;;4376138;32;19935;-72
2021/12/06 06:53:52;;;;;;;112.68;52.28;;;;;;;;;;4376439;32;20050;-71
2021/12/06 06:56:17;;;;;;;;;;;;;;;;;;4362852;32;20356;-71
2021/12/06 06:58:43;;;;;;;115.75;51.22;;;;;;;;;;4376446;32;19946;-72
2021/12/06 07:01:08;;;;;;;;;;;;;;;;;;4377106;32;20461;-70
2021/12/06 07:03:33;;;;;;;135.95;54.22;;;;;;;;;;4374627;32;19984;-71
2021/12/06 07:05:59;;;;;;;;;;;;;;;;;;4376207;32;20110;-72
2021/12/06 07:08:28;;;;;;;125.32;53.53;;;;;;;;;;4376170;32;19997;-71
2021/12/06 07:10:54;;;;;;;141.00;57.53;;;;;;;;;;4376169;32;20420;-71
2021/12/06 07:13:20;;;;;;;;;;;;;;;;;;4376648;32;20387;-72
2021/12/06 07:15:45;;;;;;;129.65;54.28;;;;;;;;;;4374507;32;19960;-72
2021/12/06 07:18:11;;;;;;;;;;;;;;;;;;4352604;33;20059;-73
2021/12/06 07:20:44;;;;;;;148.65;55.83;;;;;;;;;;4362753;32;20284;-72
2021/12/06 07:23:18;;;;;;;137.40;57.75;;;;;;;;;;4361150;32;20024;-72
2021/12/06 07:25:43;;;;;;;168.10;58.92;;;;;;;;;;4361187;32;20455;-73
2021/12/06 07:28:08;;;;;;;;;;;;;;;;;;4361345;33;20016;-72
2021/12/06 07:30:34;;;;;;;201.44;62.86;;;;;;;;;;4360952;32;20001;-72
2021/12/06 07:32:59;;;;;;;;;;;;;;;;;;4347482;33;20413;-72
2021/12/06 07:35:27;;;;;;;187.00;57.53;;;;;;;;;;4361669;32;19934;-72
2021/12/06 07:37:52;;;;;;;239.10;64.87;;;;;;;;;;4362340;32;20426;-70
2021/12/06 07:40:17;;;;;;;;;;;;;;;;;;4373279;32;20023;-72
2021/12/06 07:42:43;;;;;;;162.30;58.20;;;;;;;;;;4358006;32;19950;-71
2021/12/06 07:45:08;;;;;;;;;;;;;;;;;;4345735;33;20051;-72
2021/12/06 07:47:37;;;;;;;223.62;70.94;;;;;;;;;;4332270;33;19934;-72
2021/12/06 07:55:54;;;;;;;166.55;65.40;;;;;;;;;;4337283;33;20024;-72
2021/12/06 07:58:19;;;;;;;;;;;;;;;;;;4346541;33;20024;-73
2021/12/06 08:00:55;;;;;;;161.40;59.90;;;;;;;;;;4345518;33;19947;-72
2021/12/06 08:03:22;;;;;;;154.85;62.83;;;;;;;;;;4346957;33;20449;-72
2021/12/06 08:05:49;;;;;;;152.68;58.83;;;;;;;;;;4345717;33;20058;-72
2021/12/06 08:08:33;;;;;;;174.00;62.22;;;;;;;;;;4345367;33;20023;-72
2021/12/06 08:11:00;;;;;;;145.80;59.30;;;;;;;;;;4332047;33;20074;-72
2021/12/06 08:13:27;;;;;;;221.13;65.22;;;;;;;;;;4345869;33;20395;-72
2021/12/06 08:15:53;;;;;;;169.55;65.62;;;;;;;;;;4345808;33;20398;-71
2021/12/06 08:18:19;;;;;;;168.93;66.00;;;;;;;;;;4345643;33;20410;-71
2021/12/06 08:20:44;;;;;;;;;;;;;;;;;;4345702;33;20039;-72
2021/12/06 08:23:10;;;;;;;178.05;68.40;;;;;;;;;;4345701;33;20272;-73
2021/12/06 08:25:35;;;;;;;;;;;;;;;;;;4345912;32;20057;-72
2021/12/06 08:28:00;;;;;;;184.15;67.12;;;;;;;;;;4345612;33;19970;-72
2021/12/06 08:30:26;;;;;;;;;;;;;;;;;;4332619;33;20328;-72
2021/12/06 08:32:54;;;;;;;178.45;66.82;;;;;;;;;;4332090;33;20354;-72
2021/12/06 08:35:20;;;;;;;175.50;68.45;;;;;;;;;;4344984;33;20062;-72
2021/12/06 08:37:45;;;;;;;;;;;;;;;;;;4345440;33;20362;-72
2021/12/06 08:40:10;;;;;;;161.93;64.82;;;;;;;;;;4345444;33;20322;-72
2021/12/06 08:42:35;;;;;;;;;;;;;;;;;;4346189;33;20114;-71
2021/12/06 08:45:01;;;;;;;171.77;60.58;;;;;;;;;;4346272;33;19966;-72
2021/12/06 08:47:26;;;;;;;;;;;;;;;;;;4345324;33;20019;-72
2021/12/06 08:49:51;;;;;;;160.95;60.97;;;;;;;;;;4331686;33;19939;-73
2021/12/06 08:52:17;;;;;;;;;;;;;;;;;;4345845;33;20023;-72
2021/12/06 08:54:42;;;;;;;146.52;55.63;;;;;;;;;;4346128;33;20252;-73
2021/12/06 08:57:16;;;;;;;;;;;;;;;;;;4349316;33;20020;-71
2021/12/06 08:59:42;;;;;;;148.18;56.83;;;;;;;;;;4347918;33;19938;-72
2021/12/06 09:02:07;;;;;;;;;;;;;;;;;;4348486;33;20609;-71
2021/12/06 09:04:40;;;;;;;145.93;55.83;;;;;;;;;;4347981;33;19943;-71
2021/12/06 09:07:12;;;;;;;152.00;59.65;;;;;;;;;;4348249;33;20432;-71
2021/12/06 09:09:46;;;;;;;153.18;61.83;;;;;;;;;;4348520;33;20436;-71
2021/12/06 09:12:22;;;;;;;140.62;60.33;;;;;;;;;;4348178;33;20048;-72
2021/12/06 09:14:48;;;;;;;128.07;55.03;;;;;;;;;;4348211;33;20039;-71
2021/12/06 09:17:13;;;;;;;;;;;;;;;;;;4347884;33;20020;-71
2021/12/06 09:19:38;;;;;;;128.90;55.83;;;;;;;;;;4334523;33;19998;-71
2021/12/06 09:22:03;;;;;;;;;;;;;;;;;;4348201;33;20055;-72
2021/12/06 09:24:29;;;;;;;126.05;54.15;;;;;;;;;;4349443;33;20344;-72
2021/12/06 09:26:54;;;;;;;;;;;;;;;;;;4347989;33;20166;-72
2021/12/06 09:29:19;;;;;;;113.78;51.55;;;;;;;;;;4347963;33;19943;-72
2021/12/06 09:31:50;;;;;;;;;;;;;;;;;;4348351;33;20020;-73
2021/12/06 09:34:37;;;;;;;116.53;52.00;;;;;;;;;;4348489;33;20299;-72
2021/12/06 09:37:02;;;;;;;121.55;51.97;;;;;;;;;;4347730;33;20020;-72
2021/12/06 09:39:28;;;;;;;;;;;;;;;;;;4348395;33;20019;-72
2021/12/06 09:41:53;;;;;;;109.20;50.58;;;;;;;;;;4347520;33;19957;-71
2021/12/06 09:44:18;;;;;;;;;;;;;;;;;;4347635;33;20346;-72
2021/12/06 09:46:44;;;;;;;122.52;53.62;;;;;;;;;;4347328;33;19939;-72
2021/12/06 09:49:09;;;;;;;;;;;;;;;;;;4348731;33;20020;-71
2021/12/06 09:51:36;;;;;;;105.28;50.28;;;;;;;;;;4347500;33;19997;-72
2021/12/06 09:54:02;;;;;;;110.40;51.40;;;;;;;;;;4347059;33;20059;-69
2021/12/06 09:56:27;;;;;;;;;;;;;;;;;;4347407;33;20023;-71
2021/12/06 09:59:10;;;;;;;117.85;54.60;;;;;;;;;;4347901;33;19956;-72
2021/12/06 10:01:40;;;;;;;112.57;54.55;;;;;;;;;;4347832;33;20361;-71
2021/12/06 10:04:07;;;;;;;110.25;53.20;;;;;;;;;;4347142;33;20025;-72
2021/12/06 10:06:32;;;;;;;103.25;50.45;;;;;;;;;;4333117;33;20099;-72
2021/12/06 10:08:57;;;;;;;;;;;;;;;;;;4347832;33;20020;-72
2021/12/06 10:11:24;;;;;;;95.53;47.70;;;;;;;;;;4347078;33;19935;-72
2021/12/06 10:13:50;;;;;;;94.93;48.25;;;;;;;;;;4346929;33;20024;-71
2021/12/06 10:16:15;;;;;;;;;;;;;;;;;;4347560;33;20046;-72
2021/12/06 10:18:48;;;;;;;83.26;43.86;;;;;;;;;;4347085;33;19959;-71
2021/12/06 10:21:17;;;;;;;79.62;42.20;;;;;;;;;;4334025;33;20437;-71
2021/12/06 10:23:43;;;;;;;79.97;42.90;;;;;;;;;;4346985;33;20019;-72
2021/12/06 10:26:10;;;;;;;82.80;43.53;;;;;;;;;;4347161;33;20046;-71
2021/12/06 10:28:56;;;;;;;74.43;38.22;;;;;;;;;;4346926;33;20015;-71
2021/12/06 10:31:22;;;;;;;77.32;41.08;;;;;;;;;;4346613;33;20051;-72
2021/12/06 10:33:47;;;;;;;;;;;;;;;;;;4347690;33;20186;-72
2021/12/06 10:36:15;;;;;;;78.32;40.70;;;;;;;;;;4348327;33;19993;-72
2021/12/06 10:38:42;;;;;;;67.15;36.33;;;;;;;;;;4333615;33;20144;-71
2021/12/06 10:41:29;;;;;;;77.68;38.90;;;;;;;;;;4347048;33;20024;-71
2021/12/06 10:43:59;;;;;;;74.22;38.40;;;;;;;;;;4346647;33;20027;-71
2021/12/06 10:46:48;;;;;;;74.70;38.10;;;;;;;;;;4346918;33;20342;-73
2021/12/06 10:49:19;;;;;;;69.65;36.40;;;;;;;;;;4347482;33;20084;-72
2021/12/06 10:51:44;;;;;;;76.82;39.05;;;;;;;;;;4345668;33;20400;-71
2021/12/06 10:54:16;;;;;;;;;;;;;;;;;;4349514;32;20043;-71
2021/12/06 10:56:45;;;;;;;79.20;37.85;;;;;;;;;;4360195;32;20034;-73
2021/12/06 10:59:22;;;;;;;75.68;39.63;;;;;;;;;;4346434;33;20019;-71
2021/12/06 11:01:49;;;;;;;86.28;43.70;;;;;;;;;;4347877;33;20024;-71
2021/12/06 11:04:16;;;;;;;81.85;39.90;;;;;;;;;;4347169;33;20019;-71
2021/12/06 11:06:44;;;;;;;76.05;39.78;;;;;;;;;;4347441;33;20081;-71
2021/12/06 11:09:11;;;;;;;74.93;37.88;;;;;;;;;;4345984;33;20359;-72
2021/12/06 11:14:31;;;;;;;75.18;36.97;;;;;;;;;;4337485;33;20020;-73
2021/12/06 11:17:33;;;;;;;73.65;37.10;;;;;;;;;;4345873;33;20044;-72
2021/12/06 11:19:59;;;;;;;76.05;36.80;;;;;;;;;;4334231;33;20031;-71
2021/12/06 11:22:24;;;;;;;;;;;;;;;;;;4361505;32;20362;-71
2021/12/06 11:24:53;;;;;;;72.22;36.35;;;;;;;;;;4361117;32;20395;-70
2021/12/06 11:27:20;;;;;;;72.28;37.40;;;;;;;;;;4360688;32;20069;-71
2021/12/06 11:29:52;;;;;;;77.40;37.92;;;;;;;;;;4361532;32;20031;-71
2021/12/06 11:32:26;;;;;;;80.00;39.33;;;;;;;;;;4361586;32;20057;-71
2021/12/06 11:34:55;;;;;;;94.53;42.10;;;;;;;;;;4360504;32;20070;-71
2021/12/06 11:37:24;;;;;;;95.60;44.45;;;;;;;;;;4347037;33;20027;-72
2021/12/06 11:40:00;;;;;;;96.45;41.15;;;;;;;;;;4360412;33;20373;-72
2021/12/06 11:42:25;;;;;;;96.22;44.25;;;;;;;;;;4361548;32;20019;-71
2021/12/06 11:44:50;;;;;;;;;;;;;;;;;;4360549;32;20055;-72
2021/12/06 11:47:19;;;;;;;105.65;43.63;;;;;;;;;;4360585;32;20282;-72
2021/12/06 11:49:50;;;;;;;97.68;42.78;;;;;;;;;;4360678;32;20411;-72
2021/12/06 11:52:23;;;;;;;90.47;41.30;;;;;;;;;;4348195;33;20382;-72
2021/12/06 11:54:54;;;;;;;90.65;40.05;;;;;;;;;;4360913;32;20020;-72
2021/12/06 11:57:24;;;;;;;98.80;41.88;;;;;;;;;;4346824;33;20019;-72
2021/12/06 11:59:55;;;;;;;96.20;41.30;;;;;;;;;;4346733;33;20401;-71
2021/12/06 12:02:35;;;;;;;86.30;39.03;;;;;;;;;;4361291;32;20045;-71
2021/12/06 12:05:07;;;;;;;85.55;38.05;;;;;;;;;;4360718;32;20069;-70
2021/12/06 12:07:50;;;;;;;78.97;35.60;;;;;;;;;;4360217;32;20031;-71
2021/12/06 12:10:26;;;;;;;69.57;31.17;;;;;;;;;;4361292;32;20078;-71
2021/12/06 12:12:54;;;;;;;66.62;29.77;;;;;;;;;;4360994;32;20055;-71
2021/12/06 12:15:20;;;;;;;64.15;28.80;;;;;;;;;;4356537;32;20111;-72
2021/12/06 12:17:46;;;;;;;;;;;;;;;;;;4332039;33;20335;-72
2021/12/06 12:20:11;;;;;;;65.57;28.55;;;;;;;;;;4345620;33;19949;-71
2021/12/06 12:22:39;;;;;;;;;;;;;;;;;;4345552;33;20028;-71
2021/12/06 12:25:09;;;;;;;71.68;30.45;;;;;;;;;;4346706;33;19946;-71
2021/12/06 12:27:48;;;;;;;61.95;28.95;;;;;;;;;;4345366;33;20402;-72
2021/12/06 12:30:13;;;;;;;59.95;27.75;;;;;;;;;;4345398;33;20058;-71
2021/12/06 12:32:38;;;;;;;;;;;;;;;;;;4345668;33;20413;-72
2021/12/06 12:35:05;;;;;;;57.33;26.92;;;;;;;;;;4331944;33;20343;-69
2021/12/06 12:37:32;;;;;;;57.15;26.08;;;;;;;;;;4329326;33;20124;-70
2021/12/06 12:39:59;;;;;;;58.13;27.13;;;;;;;;;;4331531;33;20087;-71
2021/12/06 12:42:24;;;;;;;51.00;25.17;;;;;;;;;;4317107;33;20098;-71
2021/12/06 12:44:49;;;;;;;;;;;;;;;;;;4330294;33;20354;-71
2021/12/06 12:47:26;;;;;;;51.78;25.95;;;;;;;;;;4339538;33;19961;-71
2021/12/06 12:49:54;;;;;;;55.85;25.05;;;;;;;;;;4345684;33;20031;-71
2021/12/06 12:52:39;;;;;;;49.47;24.40;;;;;;;;;;4345574;33;20081;-72
2021/12/06 12:55:34;;;;;;;52.35;25.73;;;;;;;;;;4344659;33;20420;-70
2021/12/06 12:58:15;;;;;;;48.00;23.67;;;;;;;;;;4329860;33;20019;-70
2021/12/06 13:00:56;;;;;;;46.22;23.87;;;;;;;;;;4346428;33;20023;-70
2021/12/06 13:03:28;;;;;;;57.45;26.65;;;;;;;;;;4344664;33;20081;-71
2021/12/06 13:06:11;;;;;;;56.58;27.15;;;;;;;;;;4345423;33;20078;-71
2021/12/06 13:08:36;;;;;;;69.65;28.70;;;;;;;;;;4345908;33;20083;-71
2021/12/06 13:11:01;;;;;;;;;;;;;;;;;;4346481;33;20319;-71
2021/12/06 13:13:33;;;;;;;74.45;31.80;;;;;;;;;;4345410;33;19939;-71
2021/12/06 13:16:32;;;;;;;;;;;;;;;;;;;;;
2021/12/06 13:19:33;;;;;;;65.68;30.62;;;;;;;;;;4351134;33;20040;-71
2021/12/06 13:22:06;;;;;;;51.05;25.30;;;;;;;;;;4359451;33;20062;-71
2021/12/06 13:24:36;;;;;;;53.13;26.65;;;;;;;;;;4360253;33;20070;-71
2021/12/06 13:27:09;;;;;;;55.90;25.85;;;;;;;;;;4347422;33;20059;-71
2021/12/06 13:29:53;;;;;;;53.45;26.20;;;;;;;;;;4360377;33;20028;-71
2021/12/06 13:32:38;;;;;;;46.75;25.88;;;;;;;;;;4359724;33;20032;-71
2021/12/06 13:35:22;;;;;;;55.00;26.77;;;;;;;;;;4359597;33;20090;-72
2021/12/06 13:38:06;;;;;;;46.03;27.05;;;;;;;;;;4359889;33;20066;-71
2021/12/06 13:40:50;;;;;;;42.08;24.27;;;;;;;;;;4360582;32;20059;-72
2021/12/06 13:43:20;;;;;;;44.45;22.10;;;;;;;;;;4361893;32;20047;-71
2021/12/06 13:45:52;;;;;;;39.90;23.95;;;;;;;;;;4349455;33;20046;-71
2021/12/06 13:48:23;;;;;;;42.60;24.08;;;;;;;;;;4348950;33;20031;-71
2021/12/06 13:50:50;;;;;;;47.20;24.83;;;;;;;;;;4362415;32;20031;-72
2021/12/06 13:53:33;;;;;;;46.17;23.85;;;;;;;;;;4362238;32;20039;-71
2021/12/06 13:56:04;;;;;;;40.28;22.37;;;;;;;;;;4362620;32;20027;-70
2021/12/06 13:58:33;;;;;;;41.33;23.10;;;;;;;;;;4362683;32;20024;-70
2021/12/06 14:01:02;;;;;;;41.28;22.15;;;;;;;;;;4348847;32;20036;-71
2021/12/06 14:03:36;;;;;;;38.78;22.13;;;;;;;;;;4347675;33;20102;-71
2021/12/06 14:06:06;;;;;;;40.55;22.42;;;;;;;;;;4347467;33;20115;-71
2021/12/06 14:08:31;;;;;;;38.47;21.62;;;;;;;;;;4347510;33;20082;-71
2021/12/06 14:10:56;;;;;;;;;;;;;;;;;;4340374;33;20023;-71
2021/12/06 14:13:30;;;;;;;33.88;20.15;;;;;;;;;;4360918;33;19976;-71
2021/12/06 14:15:58;;;;;;;31.70;19.08;;;;;;;;;;4362408;32;20124;-72
2021/12/06 14:18:25;;;;;;;32.40;19.65;;;;;;;;;;4361886;33;20028;-71
2021/12/06 14:20:58;;;;;;;31.55;18.50;;;;;;;;;;4361433;32;20027;-72
2021/12/06 14:23:28;;;;;;;35.20;19.30;;;;;;;;;;4362385;32;20072;-72
2021/12/06 14:26:02;;;;;;;37.70;23.05;;;;;;;;;;4362196;32;20057;-70
2021/12/06 14:28:30;;;;;;;31.40;18.85;;;;;;;;;;4361488;32;20354;-71
2021/12/06 14:30:58;;;;;;;36.47;21.27;;;;;;;;;;4361530;32;20036;-72
2021/12/06 14:33:25;;;;;;;34.72;20.90;;;;;;;;;;4361464;33;20074;-72
2021/12/06 14:35:53;;;;;;;45.60;21.40;;;;;;;;;;4361866;32;20080;-72
2021/12/06 14:38:22;;;;;;;43.80;23.15;;;;;;;;;;4361532;32;20055;-72
2021/12/06 14:43:57;;;;;;;44.58;24.83;;;;;;;;;;4344031;33;20097;-71
2021/12/06 14:46:28;;;;;;;41.95;22.67;;;;;;;;;;4362382;32;20026;-71
2021/12/06 14:48:54;;;;;;;41.50;24.00;;;;;;;;;;4361268;32;20031;-71
2021/12/06 14:51:37;;;;;;;;;;;;;;;;;;4361800;32;20031;-71
2021/12/06 14:54:11;;;;;;;46.53;25.25;;;;;;;;;;4361130;32;19951;-71
2021/12/06 14:56:48;;;;;;;45.42;24.20;;;;;;;;;;4348164;33;20350;-72
2021/12/06 14:59:17;;;;;;;40.90;23.58;;;;;;;;;;4361590;32;20019;-71
2021/12/06 15:01:43;;;;;;;43.65;24.73;;;;;;;;;;4361669;32;20398;-72
2021/12/06 15:04:17;;;;;;;;;;;;;;;;;;4361973;32;20050;-72
2021/12/06 15:06:44;;;;;;;42.95;24.50;;;;;;;;;;4361050;32;19946;-72
2021/12/06 15:09:14;;;;;;;44.17;25.62;;;;;;;;;;4361266;32;20062;-71
2021/12/06 15:11:53;;;;;;;47.25;27.33;;;;;;;;;;4362144;32;20061;-71
2021/12/06 15:14:19;;;;;;;47.75;26.52;;;;;;;;;;4361630;32;20077;-71
2021/12/06 15:16:44;;;;;;;;;;;;;;;;;;4361315;32;20418;-70
2021/12/06 15:19:10;;;;;;;53.60;28.33;;;;;;;;;;4360067;32;19939;-73
2021/12/06 15:21:37;;;;;;;;;;;;;;;;;;4361340;32;20051;-71
2021/12/06 15:24:04;;;;;;;49.85;26.67;;;;;;;;;;4360815;33;19938;-71
2021/12/06 15:26:33;;;;;;;55.22;30.73;;;;;;;;;;4361094;32;20049;-71
2021/12/06 15:29:09;;;;;;;49.13;28.12;;;;;;;;;;4361502;32;20074;-71
2021/12/06 15:31:34;;;;;;;50.95;28.35;;;;;;;;;;4362072;32;20024;-72
2021/12/06 15:34:03;;;;;;;;;;;;;;;;;;4361555;32;20065;-72
2021/12/06 15:36:28;;;;;;;54.28;29.58;;;;;;;;;;4360607;32;19942;-72
2021/12/06 15:38:55;;;;;;;;;;;;;;;;;;4354498;32;20044;-71
2021/12/06 15:41:23;;;;;;;47.65;27.02;;;;;;;;;;4346386;33;20047;-71
2021/12/06 15:43:53;;;;;;;50.03;27.77;;;;;;;;;;4345467;33;20027;-73